Time;durP1;ratioP1;P1;durP2;ratioP2;P2;SDS_P1;SDS_P2;PMS_P1;PMS_P2;Temp;Humidity;BMP_temperature;BMP_pressure;BME280_temperature;BME280_humidity;BME280_pressure;Samples;Min_cycle;Max_cycle;Signal;HPM_P1;HPM_P2
2023/02/03 00:00:35;;;;;;;4.50;2.93;;;;;;;;;;760497;182;922296;-69
2023/02/03 00:03:01;;;;;;;5.33;3.10;;;;;;;;;;754315;185;920736;-63
2023/02/03 00:05:27;;;;;;;4.63;2.70;;;;;;;;;;752503;182;890715;-69
2023/02/03 00:07:53;;;;;;;8.70;3.20;;;;;;;;;;753634;183;819388;-68
2023/02/03 00:10:20;;;;;;;8.93;2.90;;;;;;;;;;761391;183;815719;-63
2023/02/03 00:12:44;;;;;;;6.83;2.60;;;;;;;;;;754787;183;920176;-69
2023/02/03 00:15:10;;;;;;;5.57;3.10;;;;;;;;;;756566;182;918001;-64
2023/02/03 00:17:36;;;;;;;7.07;3.33;;;;;;;;;;757397;183;919025;-63
2023/02/03 00:20:02;;;;;;;7.63;3.70;;;;;;;;;;752902;183;816913;-64
2023/02/03 00:22:28;;;;;;;5.63;3.37;;;;;;;;;;758330;183;917403;-69
2023/02/03 00:24:53;;;;;;;7.50;3.93;;;;;;;;;;767033;183;919910;-63
2023/02/03 00:27:19;;;;;;;5.73;3.83;;;;;;;;;;756317;183;919288;-69
2023/02/03 00:29:45;;;;;;;7.70;4.07;;;;;;;;;;753760;184;918834;-69
2023/02/03 00:32:11;;;;;;;9.43;4.90;;;;;;;;;;761773;181;891120;-64
2023/02/03 00:34:37;;;;;;;6.87;4.50;;;;;;;;;;758508;182;920714;-71
2023/02/03 00:37:03;;;;;;;9.50;5.12;;;;;;;;;;757558;182;1020710;-69
2023/02/03 00:39:29;;;;;;;9.70;4.72;;;;;;;;;;759111;184;918052;-64
2023/02/03 00:41:55;;;;;;;9.20;4.10;;;;;;;;;;766352;183;919239;-63
2023/02/03 00:44:20;;;;;;;6.47;4.03;;;;;;;;;;762297;183;918327;-70
2023/02/03 00:46:46;;;;;;;6.63;3.33;;;;;;;;;;760535;183;918292;-70
2023/02/03 00:49:12;;;;;;;6.10;2.67;;;;;;;;;;756252;185;918539;-70
2023/02/03 00:51:38;;;;;;;12.13;4.83;;;;;;;;;;757771;181;918160;-70
2023/02/03 00:54:04;;;;;;;7.23;4.00;;;;;;;;;;757542;181;918907;-71
2023/02/03 00:56:30;;;;;;;7.40;3.53;;;;;;;;;;762949;182;916721;-70
2023/02/03 00:58:55;;;;;;;6.87;4.03;;;;;;;;;;757920;181;907720;-71
2023/02/03 01:01:21;;;;;;;7.00;3.20;;;;;;;;;;757140;182;909526;-63
2023/02/03 01:03:47;;;;;;;9.00;3.70;;;;;;;;;;754722;183;817444;-70
2023/02/03 01:06:13;;;;;;;9.73;4.30;;;;;;;;;;759374;183;910077;-71
2023/02/03 01:08:39;;;;;;;6.77;3.93;;;;;;;;;;756135;182;917966;-70
2023/02/03 01:11:06;;;;;;;9.40;4.07;;;;;;;;;;752923;183;910887;-64
2023/02/03 01:13:32;;;;;;;6.90;3.63;;;;;;;;;;761728;182;918614;-70
2023/02/03 01:15:58;;;;;;;6.30;4.30;;;;;;;;;;751116;182;917266;-63
2023/02/03 01:18:23;;;;;;;6.70;3.63;;;;;;;;;;751247;182;918428;-70
2023/02/03 01:20:49;;;;;;;8.70;4.20;;;;;;;;;;755677;182;919346;-64
2023/02/03 01:23:15;;;;;;;7.27;4.30;;;;;;;;;;758787;181;922970;-71
2023/02/03 01:25:41;;;;;;;5.43;3.73;;;;;;;;;;754783;183;928540;-64
2023/02/03 01:28:07;;;;;;;5.93;3.60;;;;;;;;;;750326;182;918582;-64
2023/02/03 01:30:33;;;;;;;6.13;4.40;;;;;;;;;;755499;185;918674;-72
2023/02/03 01:32:58;;;;;;;4.72;4.10;;;;;;;;;;750498;185;918948;-63
2023/02/03 01:35:24;;;;;;;7.40;4.30;;;;;;;;;;751151;182;853032;-64
2023/02/03 01:37:50;;;;;;;9.50;5.70;;;;;;;;;;762565;179;918698;-71
2023/02/03 01:40:16;;;;;;;8.03;5.27;;;;;;;;;;757291;181;919386;-64
2023/02/03 01:42:42;;;;;;;6.27;5.40;;;;;;;;;;757957;183;917672;-65
2023/02/03 01:45:08;;;;;;;8.77;4.93;;;;;;;;;;758892;185;918464;-64
2023/02/03 01:47:34;;;;;;;8.17;5.13;;;;;;;;;;764653;179;1010298;-71
2023/02/03 01:50:02;;;;;;;8.90;6.03;;;;;;;;;;758742;182;916914;-68
2023/02/03 01:52:28;;;;;;;5.90;4.73;;;;;;;;;;754447;184;919310;-63
2023/02/03 01:54:53;;;;;;;7.12;4.37;;;;;;;;;;770208;180;917682;-70
2023/02/03 01:57:19;;;;;;;7.40;4.47;;;;;;;;;;751927;182;1017816;-64
2023/02/03 01:59:45;;;;;;;5.73;3.77;;;;;;;;;;752074;182;835605;-71
2023/02/03 02:02:11;;;;;;;8.77;4.15;;;;;;;;;;756582;182;816563;-64
2023/02/03 02:04:38;;;;;;;6.03;3.83;;;;;;;;;;755324;182;917304;-64
2023/02/03 02:07:04;;;;;;;5.80;3.95;;;;;;;;;;755824;181;917823;-64
2023/02/03 02:09:29;;;;;;;4.67;3.17;;;;;;;;;;761896;182;919151;-71
2023/02/03 02:11:55;;;;;;;6.47;3.90;;;;;;;;;;756465;182;918538;-71
2023/02/03 02:14:21;;;;;;;5.87;3.87;;;;;;;;;;754000;184;921043;-63
2023/02/03 02:16:52;;;;;;;6.20;4.03;;;;;;;;;;754858;182;915630;-69
2023/02/03 02:19:33;;;;;;;6.87;3.97;;;;;;;;;;751931;185;918681;-71
2023/02/03 02:22:02;;;;;;;6.57;3.97;;;;;;;;;;755985;185;919566;-64
2023/02/03 02:24:47;;;;;;;5.57;3.90;;;;;;;;;;753387;183;921134;-71
2023/02/03 02:27:27;;;;;;;6.37;4.60;;;;;;;;;;751736;184;920598;-71
2023/02/03 02:30:13;;;;;;;7.60;3.93;;;;;;;;;;752228;185;918912;-64
2023/02/03 02:32:40;;;;;;;8.63;4.40;;;;;;;;;;756339;182;912889;-63
2023/02/03 02:35:08;;;;;;;6.90;4.40;;;;;;;;;;753643;183;817497;-64
2023/02/03 02:37:34;;;;;;;10.47;4.87;;;;;;;;;;758276;183;914600;-63
2023/02/03 02:40:03;;;;;;;6.00;4.03;;;;;;;;;;766083;183;916508;-63
2023/02/03 02:42:31;;;;;;;5.07;3.70;;;;;;;;;;761839;183;919242;-64
2023/02/03 02:44:58;;;;;;;5.50;3.73;;;;;;;;;;762908;183;817468;-70
2023/02/03 02:47:24;;;;;;;5.47;3.75;;;;;;;;;;764208;183;818484;-64
2023/02/03 02:49:53;;;;;;;4.90;3.70;;;;;;;;;;766516;182;822561;-63
2023/02/03 02:52:19;;;;;;;7.27;4.50;;;;;;;;;;760135;182;918385;-63
2023/02/03 02:54:45;;;;;;;8.00;4.43;;;;;;;;;;751022;183;917942;-63
2023/02/03 02:57:10;;;;;;;6.33;4.23;;;;;;;;;;754979;186;842203;-70
2023/02/03 02:59:36;;;;;;;5.43;3.87;;;;;;;;;;754274;185;908346;-70
2023/02/03 03:02:02;;;;;;;6.43;3.70;;;;;;;;;;763266;180;919538;-70
2023/02/03 03:04:28;;;;;;;8.07;4.70;;;;;;;;;;761477;183;917293;-70
2023/02/03 03:06:59;;;;;;;6.37;3.73;;;;;;;;;;755085;181;918244;-63
2023/02/03 03:09:25;;;;;;;7.90;4.80;;;;;;;;;;750261;182;918893;-69
2023/02/03 03:11:50;;;;;;;7.50;3.80;;;;;;;;;;750865;183;916610;-70
2023/02/03 03:14:16;;;;;;;6.40;4.20;;;;;;;;;;757128;183;919393;-63
2023/02/03 03:16:42;;;;;;;11.63;5.75;;;;;;;;;;752184;183;917943;-63
2023/02/03 03:19:08;;;;;;;8.00;4.20;;;;;;;;;;756474;181;917772;-70
2023/02/03 03:21:34;;;;;;;10.77;5.00;;;;;;;;;;761929;182;911821;-70
2023/02/03 03:24:00;;;;;;;9.43;4.80;;;;;;;;;;752349;185;915348;-64
2023/02/03 03:26:26;;;;;;;7.03;3.90;;;;;;;;;;751580;182;918977;-70
2023/02/03 03:28:52;;;;;;;8.10;4.40;;;;;;;;;;755129;183;806698;-64
2023/02/03 03:31:18;;;;;;;6.73;4.00;;;;;;;;;;751380;184;919205;-71
2023/02/03 03:33:44;;;;;;;11.30;4.70;;;;;;;;;;754154;184;919945;-63
2023/02/03 03:36:11;;;;;;;7.50;4.20;;;;;;;;;;755032;184;815409;-63
2023/02/03 03:38:37;;;;;;;5.77;3.93;;;;;;;;;;761379;183;918345;-64
2023/02/03 03:41:03;;;;;;;8.87;4.40;;;;;;;;;;752425;182;920552;-64
2023/02/03 03:43:29;;;;;;;9.70;5.43;;;;;;;;;;755574;182;823079;-64
2023/02/03 03:45:55;;;;;;;7.62;4.30;;;;;;;;;;760935;182;919043;-70
2023/02/03 03:48:20;;;;;;;8.93;4.77;;;;;;;;;;752501;182;919280;-63
2023/02/03 03:50:46;;;;;;;6.87;4.47;;;;;;;;;;757085;182;915511;-63
2023/02/03 03:53:12;;;;;;;5.57;3.17;;;;;;;;;;764040;182;901808;-64
2023/02/03 03:55:38;;;;;;;6.83;2.83;;;;;;;;;;759796;182;615135;-63
2023/02/03 03:58:04;;;;;;;6.07;3.30;;;;;;;;;;759468;182;918999;-64
2023/02/03 04:00:30;;;;;;;6.00;3.33;;;;;;;;;;754415;183;918762;-70
2023/02/03 04:02:56;;;;;;;5.67;3.20;;;;;;;;;;758446;183;916791;-63
2023/02/03 04:05:22;;;;;;;6.73;4.30;;;;;;;;;;755144;182;917642;-63
2023/02/03 04:07:47;;;;;;;4.97;3.43;;;;;;;;;;755984;182;918747;-70
2023/02/03 04:10:15;;;;;;;6.60;3.23;;;;;;;;;;758537;183;919776;-71
2023/02/03 04:12:41;;;;;;;8.63;3.90;;;;;;;;;;755063;183;921415;-63
2023/02/03 04:15:08;;;;;;;6.18;4.07;;;;;;;;;;752242;185;920945;-63
2023/02/03 04:17:35;;;;;;;6.30;3.83;;;;;;;;;;750171;184;918988;-70
2023/02/03 04:19:59;;;;;;;5.30;3.97;;;;;;;;;;759861;183;915822;-72
2023/02/03 04:22:25;;;;;;;5.80;3.23;;;;;;;;;;751476;182;919254;-71
2023/02/03 04:24:51;;;;;;;9.55;4.43;;;;;;;;;;756527;180;918844;-70
2023/02/03 04:27:17;;;;;;;5.50;3.80;;;;;;;;;;759597;183;918185;-73
2023/02/03 04:29:43;;;;;;;7.13;4.07;;;;;;;;;;757626;182;913880;-63
2023/02/03 04:32:08;;;;;;;7.30;3.67;;;;;;;;;;760497;182;922988;-63
2023/02/03 04:34:34;;;;;;;7.63;3.90;;;;;;;;;;762309;183;918808;-63
2023/02/03 04:37:00;;;;;;;7.70;4.37;;;;;;;;;;756756;183;913239;-63
2023/02/03 04:39:26;;;;;;;6.03;4.13;;;;;;;;;;758680;183;919109;-71
2023/02/03 04:41:52;;;;;;;5.97;3.90;;;;;;;;;;764900;183;920762;-62
2023/02/03 04:44:18;;;;;;;9.90;4.93;;;;;;;;;;752508;183;918240;-64
2023/02/03 04:46:43;;;;;;;6.93;4.65;;;;;;;;;;761415;181;919971;-64
2023/02/03 04:49:10;;;;;;;7.57;4.90;;;;;;;;;;759649;182;910567;-70
2023/02/03 04:51:35;;;;;;;10.83;4.93;;;;;;;;;;758628;182;919616;-71
2023/02/03 04:54:01;;;;;;;6.37;4.83;;;;;;;;;;752056;182;934276;-71
2023/02/03 04:56:27;;;;;;;7.10;4.80;;;;;;;;;;754160;182;919391;-63
2023/02/03 04:58:53;;;;;;;5.63;3.87;;;;;;;;;;758089;184;811812;-63
2023/02/03 05:01:18;;;;;;;8.40;3.97;;;;;;;;;;753492;183;919150;-64
2023/02/03 05:03:44;;;;;;;7.70;4.37;;;;;;;;;;762091;181;616553;-70
2023/02/03 05:06:10;;;;;;;6.90;4.50;;;;;;;;;;770044;181;895134;-63
2023/02/03 05:08:36;;;;;;;7.10;3.90;;;;;;;;;;753651;183;814957;-66
2023/02/03 05:11:02;;;;;;;7.82;4.95;;;;;;;;;;755775;182;1019029;-70
2023/02/03 05:13:28;;;;;;;9.30;4.53;;;;;;;;;;758923;183;890479;-70
2023/02/03 05:15:53;;;;;;;6.37;3.87;;;;;;;;;;757261;183;875768;-63
2023/02/03 05:18:19;;;;;;;7.13;4.93;;;;;;;;;;756485;182;882986;-64
2023/02/03 05:20:45;;;;;;;6.20;4.50;;;;;;;;;;759905;181;915470;-64
2023/02/03 05:23:11;;;;;;;9.20;5.87;;;;;;;;;;759639;183;934774;-63
2023/02/03 05:25:37;;;;;;;8.53;5.30;;;;;;;;;;757229;183;919259;-64
2023/02/03 05:28:03;;;;;;;6.20;4.70;;;;;;;;;;763979;181;919027;-64
2023/02/03 05:30:29;;;;;;;8.80;5.28;;;;;;;;;;764930;183;916666;-64
2023/02/03 05:32:55;;;;;;;5.73;4.50;;;;;;;;;;763787;179;913062;-63
2023/02/03 05:35:20;;;;;;;8.30;4.83;;;;;;;;;;752468;183;919331;-67
2023/02/03 05:37:47;;;;;;;7.32;4.40;;;;;;;;;;761414;183;913205;-71
2023/02/03 05:42:46;;;;;;;7.87;4.50;;;;;;;;;;765325;181;823121;-64
2023/02/03 05:45:12;;;;;;;6.10;4.53;;;;;;;;;;758093;182;920234;-63
2023/02/03 05:47:38;;;;;;;6.25;4.30;;;;;;;;;;766795;182;919080;-63
2023/02/03 05:50:04;;;;;;;7.27;3.90;;;;;;;;;;760233;182;919324;-63
2023/02/03 05:52:30;;;;;;;4.70;3.50;;;;;;;;;;757359;182;1025443;-64
2023/02/03 05:54:56;;;;;;;5.90;4.10;;;;;;;;;;756067;182;832647;-63
2023/02/03 05:57:22;;;;;;;7.55;5.00;;;;;;;;;;752699;183;811160;-71
2023/02/03 05:59:48;;;;;;;7.47;4.53;;;;;;;;;;755613;183;919834;-63
2023/02/03 06:02:13;;;;;;;10.33;4.50;;;;;;;;;;756502;183;918161;-70
2023/02/03 06:04:40;;;;;;;5.33;3.90;;;;;;;;;;762539;183;916929;-63
2023/02/03 06:07:05;;;;;;;5.63;3.90;;;;;;;;;;757248;182;890072;-71
2023/02/03 06:09:31;;;;;;;6.87;4.03;;;;;;;;;;753956;182;915192;-71
2023/02/03 06:11:57;;;;;;;7.30;3.70;;;;;;;;;;759225;183;906551;-72
2023/02/03 06:14:23;;;;;;;7.83;5.27;;;;;;;;;;756892;183;916723;-63
2023/02/03 06:16:48;;;;;;;6.73;4.07;;;;;;;;;;757169;182;918526;-71
2023/02/03 06:19:14;;;;;;;10.30;4.73;;;;;;;;;;766039;180;917198;-64
2023/02/03 06:21:40;;;;;;;8.77;3.60;;;;;;;;;;762821;181;919969;-61
2023/02/03 06:24:06;;;;;;;6.83;3.67;;;;;;;;;;755638;182;918094;-62
2023/02/03 06:26:32;;;;;;;7.70;4.20;;;;;;;;;;753839;183;919869;-63
2023/02/03 06:28:58;;;;;;;10.90;4.63;;;;;;;;;;761251;182;921218;-71
2023/02/03 06:31:24;;;;;;;8.40;4.80;;;;;;;;;;763871;180;821350;-63
2023/02/03 06:33:49;;;;;;;7.07;4.77;;;;;;;;;;761159;181;919117;-71
2023/02/03 06:36:15;;;;;;;7.50;3.73;;;;;;;;;;761689;181;815909;-71
2023/02/03 06:38:41;;;;;;;7.67;4.07;;;;;;;;;;755449;182;915639;-63
2023/02/03 06:41:07;;;;;;;6.97;3.97;;;;;;;;;;756789;183;908135;-70
2023/02/03 06:43:34;;;;;;;6.00;4.17;;;;;;;;;;767015;181;901320;-70
2023/02/03 06:45:59;;;;;;;5.27;3.77;;;;;;;;;;755127;183;918840;-63
2023/02/03 06:48:24;;;;;;;6.83;3.40;;;;;;;;;;754061;183;923574;-63
2023/02/03 06:50:50;;;;;;;7.70;4.47;;;;;;;;;;755328;183;917985;-63
2023/02/03 06:53:16;;;;;;;8.93;4.13;;;;;;;;;;768133;182;918272;-71
2023/02/03 06:55:42;;;;;;;5.97;4.43;;;;;;;;;;754626;182;917181;-72
2023/02/03 06:58:08;;;;;;;7.63;4.70;;;;;;;;;;759321;183;735711;-63
2023/02/03 07:00:34;;;;;;;6.27;4.23;;;;;;;;;;769908;182;712233;-71
2023/02/03 07:03:00;;;;;;;7.80;4.27;;;;;;;;;;758970;183;918831;-63
2023/02/03 07:05:26;;;;;;;6.67;3.77;;;;;;;;;;753163;183;919472;-70
2023/02/03 07:07:51;;;;;;;5.53;3.80;;;;;;;;;;762963;182;918246;-63
2023/02/03 07:10:17;;;;;;;7.03;4.40;;;;;;;;;;756361;183;936240;-70
2023/02/03 07:12:43;;;;;;;6.33;3.63;;;;;;;;;;759633;183;816412;-63
2023/02/03 07:15:10;;;;;;;5.63;4.20;;;;;;;;;;757108;182;911617;-69
2023/02/03 07:17:37;;;;;;;6.47;3.97;;;;;;;;;;761929;182;771241;-70
2023/02/03 07:20:03;;;;;;;10.10;5.27;;;;;;;;;;757501;180;916792;-71
2023/02/03 07:22:29;;;;;;;7.57;4.10;;;;;;;;;;758753;181;1022328;-69
2023/02/03 07:24:55;;;;;;;9.27;4.80;;;;;;;;;;762183;183;813684;-62
2023/02/03 07:27:21;;;;;;;11.05;5.57;;;;;;;;;;753249;182;918306;-70
2023/02/03 07:29:47;;;;;;;6.95;4.80;;;;;;;;;;759495;180;917937;-63
2023/02/03 07:32:13;;;;;;;10.03;5.70;;;;;;;;;;763998;180;917521;-63
2023/02/03 07:34:40;;;;;;;6.80;5.63;;;;;;;;;;758069;183;916123;-68
2023/02/03 07:37:06;;;;;;;7.17;4.43;;;;;;;;;;756667;184;916586;-68
2023/02/03 07:39:32;;;;;;;8.70;5.27;;;;;;;;;;752494;183;920043;-68
2023/02/03 07:41:58;;;;;;;8.63;5.30;;;;;;;;;;765755;180;918887;-61
2023/02/03 07:44:24;;;;;;;12.70;5.80;;;;;;;;;;754408;182;922876;-62
2023/02/03 07:46:49;;;;;;;7.40;5.27;;;;;;;;;;755124;183;935814;-63
2023/02/03 07:49:15;;;;;;;8.57;5.93;;;;;;;;;;761310;183;917183;-69
2023/02/03 07:51:41;;;;;;;13.30;5.30;;;;;;;;;;753350;182;919298;-62
2023/02/03 07:54:07;;;;;;;7.27;5.37;;;;;;;;;;754974;182;919166;-68
2023/02/03 07:56:33;;;;;;;9.20;6.10;;;;;;;;;;760162;183;917355;-68
2023/02/03 07:58:59;;;;;;;9.83;5.10;;;;;;;;;;762654;179;916363;-62
2023/02/03 08:01:25;;;;;;;7.10;4.90;;;;;;;;;;757900;183;888497;-62
2023/02/03 08:03:50;;;;;;;6.73;4.93;;;;;;;;;;759072;182;918313;-63
2023/02/03 08:06:16;;;;;;;8.17;5.37;;;;;;;;;;758501;184;919348;-68
2023/02/03 08:08:42;;;;;;;12.40;4.87;;;;;;;;;;761549;180;917455;-62
2023/02/03 08:11:08;;;;;;;7.83;5.53;;;;;;;;;;762889;182;774086;-62
2023/02/03 08:13:34;;;;;;;6.43;4.97;;;;;;;;;;762738;182;918103;-61
2023/02/03 08:16:00;;;;;;;6.33;4.30;;;;;;;;;;759486;183;917902;-67
2023/02/03 08:18:26;;;;;;;11.60;6.20;;;;;;;;;;754320;183;919085;-67
2023/02/03 08:20:52;;;;;;;7.43;4.87;;;;;;;;;;763834;182;910827;-61
2023/02/03 08:23:17;;;;;;;8.90;5.63;;;;;;;;;;757993;182;816436;-62
2023/02/03 08:25:43;;;;;;;8.30;5.20;;;;;;;;;;756087;182;1022906;-68
2023/02/03 08:28:09;;;;;;;6.07;4.60;;;;;;;;;;763847;183;914406;-61
2023/02/03 08:30:35;;;;;;;10.23;4.10;;;;;;;;;;758341;182;920169;-66
2023/02/03 08:33:01;;;;;;;5.90;3.50;;;;;;;;;;755344;182;915194;-66
2023/02/03 08:35:27;;;;;;;5.80;3.63;;;;;;;;;;758801;181;916706;-62
2023/02/03 08:37:53;;;;;;;5.33;3.60;;;;;;;;;;763106;183;914478;-61
2023/02/03 08:40:18;;;;;;;6.50;3.73;;;;;;;;;;755265;183;917971;-61
2023/02/03 08:42:44;;;;;;;6.70;2.93;;;;;;;;;;754141;182;919067;-66
2023/02/03 08:45:10;;;;;;;4.20;3.37;;;;;;;;;;762276;183;830233;-60
2023/02/03 08:47:36;;;;;;;3.83;3.00;;;;;;;;;;754009;182;920478;-67
2023/02/03 08:50:02;;;;;;;8.10;3.20;;;;;;;;;;755104;183;866150;-65
2023/02/03 08:52:28;;;;;;;4.37;2.53;;;;;;;;;;757026;183;939204;-61
2023/02/03 08:54:53;;;;;;;4.20;2.77;;;;;;;;;;754300;181;919068;-64
2023/02/03 08:57:19;;;;;;;3.50;2.53;;;;;;;;;;759691;183;923548;-66
2023/02/03 08:59:45;;;;;;;4.30;2.80;;;;;;;;;;753126;182;919037;-61
2023/02/03 09:02:11;;;;;;;5.13;3.43;;;;;;;;;;756871;185;918402;-64
2023/02/03 09:04:37;;;;;;;4.65;3.00;;;;;;;;;;755892;182;918723;-67
2023/02/03 09:07:03;;;;;;;3.97;3.10;;;;;;;;;;753715;183;818421;-65
2023/02/03 09:09:29;;;;;;;4.20;2.37;;;;;;;;;;756712;183;914755;-61
2023/02/03 09:12:00;;;;;;;3.30;2.40;;;;;;;;;;754251;182;920862;-61
2023/02/03 09:14:20;;;;;;;3.53;2.30;;;;;;;;;;759585;182;918935;-60
2023/02/03 09:16:46;;;;;;;2.77;1.90;;;;;;;;;;760435;182;921026;-65
2023/02/03 09:19:12;;;;;;;3.30;1.87;;;;;;;;;;757813;183;919566;-60
2023/02/03 09:21:38;;;;;;;2.77;1.97;;;;;;;;;;765040;179;897828;-65
2023/02/03 09:24:04;;;;;;;3.22;2.40;;;;;;;;;;761888;183;843479;-61
2023/02/03 09:26:30;;;;;;;3.70;2.17;;;;;;;;;;754965;184;916042;-65
2023/02/03 09:28:56;;;;;;;3.40;1.90;;;;;;;;;;762980;179;919233;-60
2023/02/03 09:31:21;;;;;;;3.17;2.10;;;;;;;;;;760821;181;905709;-64
2023/02/03 09:33:47;;;;;;;2.97;1.90;;;;;;;;;;764905;179;919608;-64
2023/02/03 09:36:13;;;;;;;2.90;1.80;;;;;;;;;;756219;182;919935;-61
2023/02/03 09:38:39;;;;;;;2.97;1.60;;;;;;;;;;754719;183;919134;-63
2023/02/03 09:41:25;;;;;;;2.97;2.13;;;;;;;;;;762623;182;720553;-64
2023/02/03 09:43:50;;;;;;;3.00;1.50;;;;;;;;;;759584;183;920196;-61
2023/02/03 09:46:18;;;;;;;3.07;1.37;;;;;;;;;;757832;182;920806;-63
2023/02/03 09:48:44;;;;;;;3.00;1.70;;;;;;;;;;754678;182;919294;-62
2023/02/03 09:51:11;;;;;;;5.20;1.50;;;;;;;;;;757767;183;925707;-63
2023/02/03 09:53:42;;;;;;;2.87;1.50;;;;;;;;;;754192;185;919189;-65
2023/02/03 09:56:05;;;;;;;3.30;1.10;;;;;;;;;;759438;181;918739;-70
2023/02/03 09:58:32;;;;;;;2.30;1.50;;;;;;;;;;755044;182;919036;-70
2023/02/03 10:01:00;;;;;;;2.57;1.40;;;;;;;;;;759088;183;918696;-65
2023/02/03 10:03:25;;;;;;;2.73;1.90;;;;;;;;;;753581;183;817492;-70
2023/02/03 10:06:01;;;;;;;2.70;1.80;;;;;;;;;;753190;182;917150;-70
2023/02/03 10:08:28;;;;;;;2.20;1.40;;;;;;;;;;753589;182;918155;-70
2023/02/03 10:11:09;;;;;;;4.17;1.50;;;;;;;;;;761012;180;918297;-72
2023/02/03 10:13:39;;;;;;;2.20;1.20;;;;;;;;;;749031;186;919081;-64
2023/02/03 10:16:10;;;;;;;2.83;1.50;;;;;;;;;;754589;186;816729;-66
2023/02/03 10:18:36;;;;;;;1.87;1.07;;;;;;;;;;761412;181;908254;-70
2023/02/03 10:21:02;;;;;;;2.13;1.43;;;;;;;;;;758165;182;814847;-65
2023/02/03 10:23:29;;;;;;;2.23;1.20;;;;;;;;;;768497;181;919213;-67
2023/02/03 10:25:55;;;;;;;2.53;1.30;;;;;;;;;;755499;183;919174;-65
2023/02/03 10:28:20;;;;;;;4.00;1.50;;;;;;;;;;753645;182;816140;-66
2023/02/03 10:30:47;;;;;;;3.50;1.73;;;;;;;;;;757983;181;915867;-66
2023/02/03 10:33:13;;;;;;;3.90;1.87;;;;;;;;;;769748;181;918901;-66
2023/02/03 10:35:41;;;;;;;3.37;2.03;;;;;;;;;;764043;180;922058;-68
2023/02/03 10:38:06;;;;;;;5.50;1.83;;;;;;;;;;757585;182;916124;-66
2023/02/03 10:40:32;;;;;;;7.77;2.50;;;;;;;;;;756320;182;816170;-64
2023/02/03 10:45:30;;;;;;;3.40;2.33;;;;;;;;;;754966;183;920048;-65
2023/02/03 10:47:56;;;;;;;2.00;1.10;;;;;;;;;;755859;185;919932;-65
2023/02/03 10:50:22;;;;;;;3.50;2.30;;;;;;;;;;756783;183;818670;-67
2023/02/03 10:52:48;;;;;;;3.47;2.30;;;;;;;;;;753252;183;918195;-67
2023/02/03 10:55:21;;;;;;;4.73;2.80;;;;;;;;;;754755;182;928302;-67
2023/02/03 10:57:46;;;;;;;4.07;2.57;;;;;;;;;;758893;183;920720;-66
2023/02/03 11:00:19;;;;;;;4.20;2.43;;;;;;;;;;758622;182;923615;-65
2023/02/03 11:02:44;;;;;;;4.27;2.30;;;;;;;;;;754252;182;922776;-64
2023/02/03 11:05:11;;;;;;;5.50;3.23;;;;;;;;;;758743;181;921554;-64
2023/02/03 11:07:37;;;;;;;4.30;2.80;;;;;;;;;;765653;181;915771;-63
2023/02/03 11:10:03;;;;;;;6.23;3.00;;;;;;;;;;756600;183;919489;-62
2023/02/03 11:12:29;;;;;;;6.65;3.87;;;;;;;;;;753926;183;918176;-62
2023/02/03 11:14:54;;;;;;;3.77;2.50;;;;;;;;;;758527;183;888077;-65
2023/02/03 11:17:25;;;;;;;5.57;3.67;;;;;;;;;;757137;183;920680;-62
2023/02/03 11:19:49;;;;;;;4.70;2.63;;;;;;;;;;756440;183;843034;-64
2023/02/03 11:22:21;;;;;;;4.03;2.93;;;;;;;;;;757583;184;817461;-61
2023/02/03 11:24:46;;;;;;;4.37;2.97;;;;;;;;;;760340;184;814432;-62
2023/02/03 11:27:13;;;;;;;3.80;2.77;;;;;;;;;;760900;183;820125;-61
2023/02/03 11:29:41;;;;;;;5.43;3.20;;;;;;;;;;755415;182;817087;-62
2023/02/03 11:32:07;;;;;;;4.30;2.57;;;;;;;;;;757467;182;822001;-64
2023/02/03 11:34:33;;;;;;;3.43;2.23;;;;;;;;;;760570;180;914993;-63
2023/02/03 11:37:20;;;;;;;3.50;1.90;;;;;;;;;;753660;183;916452;-61
2023/02/03 11:39:46;;;;;;;4.07;2.77;;;;;;;;;;760347;182;902188;-62
2023/02/03 11:42:18;;;;;;;3.47;2.67;;;;;;;;;;758572;182;918623;-61
2023/02/03 11:44:43;;;;;;;3.80;2.80;;;;;;;;;;755959;183;1021941;-61
2023/02/03 11:47:10;;;;;;;4.00;3.20;;;;;;;;;;752765;185;918155;-66
2023/02/03 11:49:40;;;;;;;3.90;3.30;;;;;;;;;;754927;182;919019;-67
2023/02/03 11:52:12;;;;;;;3.00;2.50;;;;;;;;;;754674;183;917446;-66
2023/02/03 11:54:38;;;;;;;4.63;2.70;;;;;;;;;;757706;184;841487;-69
2023/02/03 11:57:08;;;;;;;3.57;2.40;;;;;;;;;;761144;183;919794;-67
2023/02/03 11:59:38;;;;;;;2.73;1.47;;;;;;;;;;761421;181;817959;-68
2023/02/03 12:02:12;;;;;;;5.50;3.17;;;;;;;;;;760897;181;938219;-67
2023/02/03 12:04:42;;;;;;;3.77;2.93;;;;;;;;;;753892;183;919313;-70
2023/02/03 12:07:23;;;;;;;4.00;3.10;;;;;;;;;;764108;183;919238;-73
2023/02/03 12:10:06;;;;;;;4.47;2.80;;;;;;;;;;759434;184;900934;-72
2023/02/03 12:12:51;;;;;;;4.60;3.60;;;;;;;;;;756594;185;919153;-68
2023/02/03 12:15:27;;;;;;;6.00;3.40;;;;;;;;;;757038;185;823052;-70
2023/02/03 12:17:59;;;;;;;6.50;4.23;;;;;;;;;;757377;186;914579;-70
2023/02/03 12:20:26;;;;;;;6.97;4.40;;;;;;;;;;759411;183;921079;-69
2023/02/03 12:22:53;;;;;;;6.55;4.93;;;;;;;;;;750172;181;1021370;-68
2023/02/03 12:25:29;;;;;;;5.80;4.60;;;;;;;;;;763004;182;818870;-71
2023/02/03 12:27:55;;;;;;;6.63;3.40;;;;;;;;;;760000;183;919272;-68
2023/02/03 12:30:25;;;;;;;9.07;4.33;;;;;;;;;;755279;182;875970;-73
2023/02/03 12:32:50;;;;;;;5.77;4.00;;;;;;;;;;755358;183;913590;-70
2023/02/03 12:35:16;;;;;;;6.97;4.15;;;;;;;;;;761010;183;923397;-71
2023/02/03 12:37:48;;;;;;;8.07;4.87;;;;;;;;;;761992;181;918875;-68
2023/02/03 12:40:17;;;;;;;5.27;2.90;;;;;;;;;;754493;182;840757;-68
2023/02/03 12:42:43;;;;;;;6.97;4.60;;;;;;;;;;755163;183;919922;-69
2023/02/03 12:45:10;;;;;;;6.30;3.50;;;;;;;;;;756653;182;937082;-68
2023/02/03 12:47:51;;;;;;;5.57;3.73;;;;;;;;;;763718;182;918662;-69
2023/02/03 12:50:17;;;;;;;4.53;2.90;;;;;;;;;;758404;185;774998;-69
2023/02/03 12:52:44;;;;;;;7.30;3.60;;;;;;;;;;761056;183;919042;-69
2023/02/03 12:55:14;;;;;;;7.40;4.50;;;;;;;;;;757926;182;929406;-70
2023/02/03 12:57:59;;;;;;;6.27;4.63;;;;;;;;;;765831;180;913802;-68
2023/02/03 13:00:32;;;;;;;5.10;3.80;;;;;;;;;;758566;185;919173;-69
2023/02/03 13:03:19;;;;;;;4.83;3.50;;;;;;;;;;757493;185;775232;-68
2023/02/03 13:05:49;;;;;;;7.63;4.13;;;;;;;;;;755982;185;919539;-69
2023/02/03 13:08:16;;;;;;;6.07;3.97;;;;;;;;;;741489;186;843736;-70
2023/02/03 13:10:44;;;;;;;6.20;4.33;;;;;;;;;;761591;182;923784;-69
2023/02/03 13:13:10;;;;;;;6.57;4.50;;;;;;;;;;762035;182;919059;-69
2023/02/03 13:15:37;;;;;;;4.30;3.33;;;;;;;;;;761650;182;710454;-69
2023/02/03 13:18:07;;;;;;;4.87;3.40;;;;;;;;;;763373;182;916923;-68
2023/02/03 13:20:34;;;;;;;5.10;3.27;;;;;;;;;;761916;181;918890;-68
2023/02/03 13:22:59;;;;;;;6.47;3.40;;;;;;;;;;752533;183;919019;-68
2023/02/03 13:25:26;;;;;;;7.17;3.70;;;;;;;;;;757863;184;918916;-67
2023/02/03 13:28:05;;;;;;;4.47;2.93;;;;;;;;;;760664;179;918845;-67
2023/02/03 13:30:32;;;;;;;5.53;3.73;;;;;;;;;;758825;181;906106;-67
2023/02/03 13:33:12;;;;;;;4.47;2.80;;;;;;;;;;751526;182;916447;-67
2023/02/03 13:35:40;;;;;;;2.67;2.03;;;;;;;;;;741354;187;917477;-66
2023/02/03 13:38:06;;;;;;;4.30;3.50;;;;;;;;;;757526;185;919389;-66
2023/02/03 13:40:34;;;;;;;5.87;3.20;;;;;;;;;;754982;183;920885;-66
2023/02/03 13:43:00;;;;;;;7.10;4.40;;;;;;;;;;756468;183;922906;-66
2023/02/03 13:45:38;;;;;;;3.30;2.62;;;;;;;;;;758218;183;918447;-67
2023/02/03 13:48:06;;;;;;;4.27;2.60;;;;;;;;;;762491;184;900935;-67
2023/02/03 13:50:32;;;;;;;3.93;2.70;;;;;;;;;;744703;183;915525;-67
2023/02/03 13:53:01;;;;;;;5.60;3.33;;;;;;;;;;754646;182;1681615;-67
2023/02/03 13:55:27;;;;;;;4.87;3.10;;;;;;;;;;756381;182;917472;-66
2023/02/03 13:57:53;;;;;;;4.67;3.20;;;;;;;;;;753858;185;916982;-67
2023/02/03 14:00:25;;;;;;;4.57;2.60;;;;;;;;;;751372;183;918367;-68
2023/02/03 14:02:51;;;;;;;5.50;3.30;;;;;;;;;;759038;182;1021854;-67
2023/02/03 14:05:22;;;;;;;4.60;2.80;;;;;;;;;;756311;185;919128;-66
2023/02/03 14:07:48;;;;;;;5.47;3.13;;;;;;;;;;758443;185;918161;-66
2023/02/03 14:10:14;;;;;;;4.17;2.80;;;;;;;;;;754261;182;918214;-65
2023/02/03 14:12:46;;;;;;;2.33;1.52;;;;;;;;;;759384;181;943170;-64
2023/02/03 14:15:12;;;;;;;6.00;3.37;;;;;;;;;;766227;182;828470;-65
2023/02/03 14:17:56;;;;;;;5.73;3.27;;;;;;;;;;758064;183;919174;-66
2023/02/03 14:20:38;;;;;;;4.00;2.60;;;;;;;;;;752573;184;917506;-63
2023/02/03 14:23:19;;;;;;;3.27;2.27;;;;;;;;;;757666;181;921324;-63
2023/02/03 14:25:46;;;;;;;3.60;2.42;;;;;;;;;;758213;183;920370;-63
2023/02/03 14:28:26;;;;;;;4.20;3.10;;;;;;;;;;757507;183;917398;-64
2023/02/03 14:31:05;;;;;;;4.00;2.53;;;;;;;;;;757028;183;919392;-64
2023/02/03 14:33:36;;;;;;;5.37;2.30;;;;;;;;;;759356;183;920923;-64